createdAt,value
2023-01-07T00:04:32.197Z,50.17
2023-01-07T00:09:34.469Z,50.07
2023-01-07T00:14:36.478Z,50.20
2023-01-07T00:19:38.361Z,50.11
2023-01-07T00:24:40.546Z,50.03
2023-01-07T00:29:42.608Z,49.80
2023-01-07T00:34:47.616Z,50.21
2023-01-07T00:39:49.494Z,50.09
2023-01-07T00:44:51.300Z,49.78
2023-01-07T00:49:53.136Z,49.92
2023-01-07T00:54:55.037Z,49.58
2023-01-07T00:59:57.216Z,49.54
2023-01-07T01:04:59.121Z,49.51
2023-01-07T01:10:01.405Z,49.63
2023-01-07T01:15:09.847Z,49.68
2023-01-07T01:20:14.802Z,49.64
2023-01-07T01:25:17.161Z,49.79
2023-01-07T01:30:19.431Z,49.89
2023-01-07T01:35:22.468Z,49.82
2023-01-07T01:40:29.263Z,49.53
2023-01-07T01:45:31.381Z,49.86
2023-01-07T01:50:43.967Z,49.65
2023-01-07T01:56:14.793Z,49.80
2023-01-07T02:01:17.215Z,49.53
2023-01-07T02:06:24.005Z,49.36
2023-01-07T02:11:46.172Z,49.54
2023-01-07T02:16:53.919Z,49.61
2023-01-07T02:22:13.290Z,49.72
2023-01-07T02:27:33.970Z,49.62
2023-01-07T02:32:48.133Z,49.75
2023-01-07T02:38:05.121Z,49.72
2023-01-07T02:43:33.989Z,49.78
2023-01-07T02:48:36.895Z,49.60
2023-01-07T02:53:42.398Z,49.29
2023-01-07T02:59:25.817Z,49.43
2023-01-07T03:04:51.749Z,49.51
2023-01-07T03:10:02.931Z,49.54
2023-01-07T03:15:11.154Z,49.55
2023-01-07T03:20:15.223Z,49.57
2023-01-07T03:25:19.366Z,49.63
2023-01-07T03:30:22.476Z,49.56
2023-01-07T03:35:25.448Z,49.37
2023-01-07T03:40:27.584Z,49.33
2023-01-07T03:45:29.502Z,49.55
2023-01-07T03:50:31.405Z,49.43
2023-01-07T03:55:33.332Z,49.67
2023-01-07T04:00:35.197Z,49.37
2023-01-07T04:05:37.254Z,49.50
2023-01-07T04:10:39.188Z,49.70
2023-01-07T04:15:41.548Z,49.46
2023-01-07T04:20:47.060Z,49.33
2023-01-07T04:25:50.111Z,49.40
2023-01-07T04:30:52.071Z,49.67
2023-01-07T04:35:54.080Z,49.52
2023-01-07T04:40:55.918Z,49.33
2023-01-07T04:45:58.167Z,49.29
2023-01-07T04:51:00.339Z,49.47
2023-01-07T04:56:02.447Z,49.29
2023-01-07T05:01:05.083Z,49.26
2023-01-07T05:06:07.122Z,49.58
2023-01-07T05:11:09.005Z,49.72
2023-01-07T05:16:11.126Z,49.69
2023-01-07T05:21:13.152Z,49.38
2023-01-07T05:26:15.142Z,49.45
2023-01-07T05:31:17.215Z,49.50
2023-01-07T05:36:19.212Z,49.71
2023-01-07T05:41:20.961Z,49.67
2023-01-07T05:46:22.891Z,49.39
2023-01-07T05:51:24.887Z,49.32
2023-01-07T05:56:26.712Z,49.57
2023-01-07T06:01:28.967Z,49.56
2023-01-07T06:06:31.103Z,49.69
2023-01-07T06:11:33.050Z,49.41
2023-01-07T06:16:35.769Z,49.24
2023-01-07T06:21:38.008Z,49.56
2023-01-07T06:26:40.061Z,49.48
2023-01-07T06:31:42.033Z,49.56
2023-01-07T06:36:44.155Z,49.67
2023-01-07T06:41:45.918Z,49.41
2023-01-07T06:46:47.713Z,49.25
2023-01-07T06:51:49.572Z,49.70
2023-01-07T06:56:51.434Z,49.40
2023-01-07T07:01:53.497Z,49.21
2023-01-07T07:06:55.832Z,50.66
2023-01-07T07:11:57.699Z,50.83
2023-01-07T07:16:59.845Z,51.43
2023-01-07T07:22:03.880Z,51.61
2023-01-07T07:27:06.425Z,51.39
2023-01-07T07:32:09.366Z,51.07
2023-01-07T07:37:11.240Z,52.32
2023-01-07T07:42:13.277Z,52.53
2023-01-07T07:47:15.071Z,52.13
2023-01-07T07:52:17.651Z,52.04
2023-01-07T07:57:19.617Z,51.78
2023-01-07T08:02:21.701Z,51.72
2023-01-07T08:07:32.222Z,52.06
2023-01-07T08:12:38.811Z,51.59
2023-01-07T08:17:40.900Z,51.66
2023-01-07T08:22:43.121Z,51.41
2023-01-07T08:27:45.270Z,51.31
2023-01-07T08:32:47.204Z,51.16
2023-01-07T08:37:49.508Z,51.38
2023-01-07T08:42:51.462Z,51.27
2023-01-07T08:47:53.333Z,50.93
2023-01-07T08:52:55.171Z,50.88
2023-01-07T08:57:57.744Z,50.81
2023-01-07T09:02:59.447Z,50.93
2023-01-07T09:08:03.053Z,50.52
2023-01-07T09:13:05.131Z,50.50
2023-01-07T09:18:07.359Z,50.08
2023-01-07T09:23:09.295Z,49.95
2023-01-07T09:28:11.259Z,49.96
2023-01-07T09:33:13.530Z,50.35
2023-01-07T09:38:15.744Z,50.08
2023-01-07T09:44:00.035Z,49.94
2023-01-07T09:49:04.590Z,50.01
2023-01-07T09:54:19.009Z,50.10
2023-01-07T09:59:21.069Z,49.69
2023-01-07T10:04:34.927Z,49.77
2023-01-07T10:09:45.159Z,50.12
2023-01-07T10:15:06.040Z,50.09
2023-01-07T10:20:30.344Z,50.16
2023-01-07T10:25:37.877Z,49.57
2023-01-07T10:30:46.944Z,49.78
2023-01-07T10:35:58.552Z,49.75
2023-01-07T10:41:07.954Z,49.73
2023-01-07T10:46:24.188Z,49.58
2023-01-07T10:51:47.811Z,49.66
2023-01-07T10:56:58.413Z,49.67
2023-01-07T11:02:01.474Z,49.77
2023-01-07T11:07:13.438Z,49.65
2023-01-07T11:13:00.154Z,49.69
2023-01-07T11:18:20.275Z,49.36
2023-01-07T11:23:31.049Z,49.98
2023-01-07T11:28:34.042Z,49.92
2023-01-07T11:34:02.958Z,49.86
2023-01-07T11:39:18.423Z,49.56
2023-01-07T11:44:20.739Z,49.54
2023-01-07T11:49:27.010Z,49.43
2023-01-07T11:54:30.115Z,49.71
2023-01-07T11:59:32.165Z,49.69
2023-01-07T12:04:36.723Z,49.32
2023-01-07T12:09:41.137Z,49.65
2023-01-07T12:14:48.150Z,49.31
2023-01-07T12:20:20.934Z,49.37
2023-01-07T12:25:30.046Z,49.56
2023-01-07T12:31:13.729Z,49.55
2023-01-07T12:36:35.727Z,49.42
2023-01-07T12:41:41.925Z,49.29
2023-01-07T12:47:30.834Z,49.53
2023-01-07T12:52:51.641Z,49.19
2023-01-07T12:58:19.886Z,49.17
2023-01-07T13:03:34.620Z,49.21
2023-01-07T13:08:58.566Z,48.83
2023-01-07T13:14:00.890Z,48.89
2023-01-07T13:19:03.116Z,48.82
2023-01-07T13:24:55.005Z,46.46
2023-01-07T13:30:12.748Z,44.66
2023-01-07T13:35:20.455Z,44.16
2023-01-07T13:41:00.936Z,42.13
2023-01-07T13:46:20.612Z,43.57
2023-01-07T13:51:32.342Z,42.64
2023-01-07T13:56:37.640Z,43.35
2023-01-07T14:02:17.208Z,42.45
2023-01-07T14:07:20.292Z,44.37
2023-01-07T14:12:43.993Z,43.12
2023-01-07T14:18:11.921Z,42.56
2023-01-07T14:23:31.557Z,42.08
2023-01-07T14:28:55.275Z,43.26
2023-01-07T14:34:07.590Z,41.53
2023-01-07T14:39:30.423Z,42.71
2023-01-07T14:44:32.691Z,43.80
2023-01-07T14:49:43.556Z,44.67
2023-01-07T14:54:51.220Z,44.68
2023-01-07T15:00:04.582Z,44.21
2023-01-07T15:05:18.803Z,43.35
2023-01-07T15:10:42.680Z,43.53
2023-01-07T15:16:01.713Z,43.54
2023-01-07T15:21:46.046Z,43.37
2023-01-07T15:27:10.500Z,44.23
2023-01-07T15:32:33.928Z,43.61
2023-01-07T15:37:35.866Z,42.84
2023-01-07T15:42:37.900Z,42.68
2023-01-07T15:47:43.577Z,43.16
2023-01-07T15:53:13.764Z,43.27
2023-01-07T15:58:22.118Z,43.13
2023-01-07T16:03:24.819Z,45.69
2023-01-07T16:08:31.279Z,45.30
2023-01-07T16:13:33.654Z,45.33
2023-01-07T16:18:35.636Z,44.02
2023-01-07T16:23:38.895Z,43.84
2023-01-07T16:29:02.195Z,44.45
2023-01-07T16:34:26.397Z,45.01
2023-01-07T16:39:32.286Z,44.66
2023-01-07T16:44:57.927Z,44.25
2023-01-07T16:50:20.317Z,44.06
2023-01-07T16:55:48.803Z,45.18
2023-01-07T17:00:53.629Z,45.04
2023-01-07T17:06:08.023Z,45.07
2023-01-07T17:11:28.131Z,45.25
2023-01-07T17:16:32.512Z,45.43
2023-01-07T17:21:37.097Z,45.30
2023-01-07T17:26:42.261Z,45.47
2023-01-07T17:31:44.333Z,45.33
2023-01-07T17:36:46.687Z,46.98
2023-01-07T17:42:07.357Z,47.28
2023-01-07T17:47:12.374Z,46.79
2023-01-07T17:52:14.686Z,46.75
2023-01-07T17:57:16.661Z,48.45
2023-01-07T18:02:21.992Z,49.61
2023-01-07T18:07:23.882Z,49.71
2023-01-07T18:12:33.728Z,49.75
2023-01-07T18:17:35.598Z,49.87
2023-01-07T18:22:37.716Z,49.46
2023-01-07T18:27:39.816Z,49.58
2023-01-07T18:32:42.211Z,49.48
2023-01-07T18:37:44.227Z,49.07
2023-01-07T18:42:46.269Z,49.06
2023-01-07T18:47:48.882Z,48.74
2023-01-07T18:52:51.058Z,48.46
2023-01-07T18:57:53.306Z,48.45
2023-01-07T19:02:55.721Z,48.59
2023-01-07T19:07:57.795Z,48.33
2023-01-07T19:12:59.813Z,48.79
2023-01-07T19:18:01.719Z,48.95
2023-01-07T19:23:03.800Z,49.21
2023-01-07T19:28:05.689Z,49.20
2023-01-07T19:33:08.162Z,49.40
2023-01-07T19:38:10.175Z,49.03
2023-01-07T19:43:13.000Z,48.70
2023-01-07T19:48:14.902Z,48.53
2023-01-07T19:53:16.974Z,48.26
2023-01-07T19:58:18.846Z,48.23
2023-01-07T20:03:20.804Z,47.94
2023-01-07T20:08:23.996Z,47.80
2023-01-07T20:13:27.623Z,47.72
2023-01-07T20:18:29.501Z,47.99
2023-01-07T20:23:31.828Z,47.91
2023-01-07T20:28:34.150Z,47.67
2023-01-07T20:33:36.066Z,47.63
2023-01-07T20:38:38.086Z,47.72
2023-01-07T20:43:40.269Z,47.62
2023-01-07T20:48:42.130Z,47.35
2023-01-07T20:53:45.060Z,47.37
2023-01-07T20:58:48.286Z,47.58
2023-01-07T21:03:50.974Z,47.62
2023-01-07T21:08:53.032Z,47.51
2023-01-07T21:13:56.669Z,47.63
2023-01-07T21:18:58.831Z,47.25
2023-01-07T21:24:00.975Z,48.05
2023-01-07T21:29:02.885Z,48.32
2023-01-07T21:34:05.068Z,48.13
2023-01-07T21:39:07.060Z,47.84
2023-01-07T21:44:11.955Z,47.74
2023-01-07T21:49:13.719Z,47.55
2023-01-07T21:54:15.790Z,47.60
2023-01-07T21:59:17.719Z,47.42
2023-01-07T22:04:20.023Z,47.47
2023-01-07T22:09:22.160Z,47.69
2023-01-07T22:14:24.674Z,47.20
2023-01-07T22:19:26.483Z,47.58
2023-01-07T22:24:29.570Z,47.28
2023-01-07T22:29:32.911Z,47.04
2023-01-07T22:34:35.071Z,47.08
2023-01-07T22:39:45.780Z,47.43
2023-01-07T22:45:01.074Z,47.21
2023-01-07T22:50:05.680Z,47.30
2023-01-07T22:55:08.135Z,47.35
2023-01-07T23:00:35.658Z,47.43
2023-01-07T23:05:40.109Z,47.14
2023-01-07T23:10:45.403Z,47.21
2023-01-07T23:15:47.500Z,47.05
2023-01-07T23:20:49.564Z,46.92
2023-01-07T23:25:52.076Z,47.00
2023-01-07T23:30:54.620Z,46.66
2023-01-07T23:36:04.207Z,47.02
2023-01-07T23:41:08.706Z,46.89
2023-01-07T23:46:10.936Z,46.84
2023-01-07T23:51:16.051Z,47.11
2023-01-07T23:56:19.601Z,48.04
